Pgc Ikaros — C6TN6 — position and weather

sailwx.info

Track history (hours):
 
Tides and Currents Weather Stations Pressure Air Temp Water Temp Dewpoint Dewpoint Depression Visibility Wind Speed Wind Dir Waves Ship Positions

Pgc Ikaros

Last reported at 2017-Sep-25 10:59 UTC. Time now 2017-Sep-25 11:21 UTC.
Position N 37°03' W 123°16'.

Length 228 m; draft 11.2 m.

Type: Tanker. MMSI: 311707000.

Date/timePositionNaut miles runAvg speedWind from/ knotsBaromVisibWave heightAir tempDewpointWater temp
2017-Sep-25 10:59N 37°03' W 123°16'1 1.0
2017-Sep-25 10:26N 37°04' W 123°16'1 0.9
2017-Sep-25 09:53N 37°04' W 123°16'0 1.0
2017-Sep-25 09:29N 37°05' W 123°16'1 1.0
2017-Sep-25 08:59N 37°05' W 123°16'0 1.0
2017-Sep-25 08:30N 37°06' W 123°16'1 1.2
2017-Sep-25 08:00N 37°06' W 123°16'1 1.2
2017-Sep-25 07:30N 37°07' W 123°16'1 1.1
2017-Sep-25 07:00N 37°07' W 123°16'1 1.1
2017-Sep-25 06:30N 37°08' W 123°15'1 1.2
2017-Sep-25 06:00N 37°09' W 123°15'1 1.2
2017-Sep-25 05:30N 37°09' W 123°15'1 1.1
2017-Sep-25 05:00N 37°10' W 123°15'1 1.3
2017-Sep-25 04:30N 37°10' W 123°15'1 1.4
2017-Sep-25 04:00N 37°11' W 123°14'1 1.5
2017-Sep-25 03:30N 37°12' W 123°14'1 1.4
2017-Sep-25 03:00N 37°12' W 123°14'1 1.6
2017-Sep-25 02:30N 37°13' W 123°13'1 1.5
2017-Sep-25 02:00N 37°14' W 123°13'1 1.4
2017-Sep-25 01:30N 37°15' W 123°13'1 1.4
2017-Sep-25 01:00N 37°15' W 123°13'0 0.4
2017-Sep-25 00:30N 37°15' W 123°13'3 6.8
2017-Sep-25 00:00N 37°12' W 123°11'611.6
2017-Sep-24 23:30N 37°07' W 123°09'611.7
2017-Sep-24 23:00N 37°01' W 123°07'611.5
2017-Sep-24 22:30N 36°56' W 123°05'611.6
2017-Sep-24 22:01N 36°50' W 123°03'611.9
2017-Sep-24 21:30N 36°46' W 122°58'612.0
2017-Sep-24 21:00N 36°41' W 122°54'611.8
2017-Sep-24 20:30N 36°36' W 122°49'611.8
2017-Sep-24 20:00N 36°32' W 122°44'611.7
2017-Sep-24 19:30N 36°27' W 122°40'611.2
2017-Sep-24 19:00N 36°23' W 122°35'811.3
2017-Sep-24 18:17N 36°17' W 122°29'311.3
2017-Sep-24 18:00N 36°14' W 122°26'611.2
2017-Sep-24 17:30N 36°10' W 122°22'611.2
2017-Sep-24 17:00N 36°05' W 122°18'611.1
2017-Sep-24 16:30N 36°01' W 122°13'611.3
2017-Sep-24 16:00N 35°57' W 122°09'611.2
2017-Sep-24 15:31N 35°53' W 122°05'611.4
2017-Sep-24 15:00N 35°48' W 121°60'711.6
2017-Sep-24 14:26N 35°43' W 121°55'1511.8
2017-Sep-24 13:10N 35°30' W 121°45'211.8
2017-Sep-24 13:00N 35°29' W 121°43'611.3
2017-Sep-24 12:30N 35°24' W 121°40'611.4
2017-Sep-24 12:01N 35°19' W 121°36'611.7
2017-Sep-24 11:30N 35°15' W 121°32'611.8
2017-Sep-24 11:01N 35°10' W 121°28'611.9
2017-Sep-24 10:30N 35°05' W 121°23'611.4
2017-Sep-24 10:01N 35°00' W 121°20'611.3
2017-Sep-24 09:30N 34°56' W 121°16'611.3
2017-Sep-24 09:00N 34°51' W 121°12'611.2
2017-Sep-24 08:31N 34°46' W 121°08'611.4
2017-Sep-24 08:01N 34°42' W 121°04'611.3
2017-Sep-24 07:31N 34°37' W 121°00'611.4
2017-Sep-24 07:00N 34°32' W 120°57'611.3
2017-Sep-24 06:31N 34°27' W 120°53'611.3
2017-Sep-24 05:59N 34°25' W 120°46'511.4
2017-Sep-24 05:30N 34°24' W 120°40'611.6
2017-Sep-24 04:59N 34°22' W 120°33'611.5
2017-Sep-24 04:30N 34°21' W 120°26'611.9
2017-Sep-24 04:00N 34°19' W 120°19'611.3
2017-Sep-24 03:29N 34°17' W 120°12'511.3
2017-Sep-24 03:00N 34°16' W 120°06'611.7
2017-Sep-24 02:28N 34°14' W 119°59'511.4
2017-Sep-24 02:00N 34°13' W 119°53'811.5
2017-Sep-24 01:20N 34°11' W 119°44'411.6
2017-Sep-24 01:00N 34°10' W 119°39'511.2
2017-Sep-24 00:30N 34°09' W 119°33'611.1
2017-Sep-24 00:00N 34°07' W 119°26'611.2
2017-Sep-23 23:30N 34°05' W 119°20'611.7
2017-Sep-23 23:00N 34°03' W 119°13'611.8
2017-Sep-23 22:30N 34°00' W 119°07'611.9
2017-Sep-23 22:00N 33°57' W 119°01'612.1
2017-Sep-23 21:31N 33°54' W 118°55'611.9
2017-Sep-23 21:00N 33°51' W 118°48'611.8
2017-Sep-23 20:30N 33°49' W 118°42'611.7
2017-Sep-23 19:58N 33°46' W 118°36'24 0.6
2017-Sep-22 01:53N 33°41' W 118°07'0 0.1
2017-Sep-22 01:29N 33°41' W 118°07'0 0.0
2017-Sep-22 00:53N 33°41' W 118°07'0 0.0
2017-Sep-22 00:23N 33°41' W 118°07'0 0.0
2017-Sep-21 23:53N 33°41' W 118°07'0 0.0
2017-Sep-21 23:29N 33°41' W 118°07'0 0.0
2017-Sep-21 22:47N 33°41' W 118°07'0 0.0
2017-Sep-21 22:17N 33°41' W 118°07'0 0.0
2017-Sep-21 21:59N 33°41' W 118°07'0 0.0
2017-Sep-21 21:29N 33°41' W 118°07'0 0.0
2017-Sep-21 20:23N 33°41' W 118°07'0 0.0
2017-Sep-21 19:17N 33°41' W 118°07'0 0.0
2017-Sep-21 18:59N 33°41' W 118°07'0 0.2
2017-Sep-21 18:29N 33°41' W 118°07'0 0.1
2017-Sep-21 17:59N 33°41' W 118°07'0 0.0
2017-Sep-21 17:23N 33°41' W 118°07'0 0.0
2017-Sep-21 16:17N 33°41' W 118°07'0 0.2
2017-Sep-21 15:59N 33°41' W 118°07'0 0.1
2017-Sep-21 15:29N 33°41' W 118°07'0 0.1
2017-Sep-21 14:53N 33°41' W 118°07'0 0.1
2017-Sep-21 14:23N 33°41' W 118°07'0 0.0
2017-Sep-21 11:50N 33°41' W 118°07'0 0.0
2017-Sep-21 11:29N 33°41' W 118°07'0 0.0
2017-Sep-21 10:05N 33°41' W 118°07'0 0.1
2017-Sep-21 09:56N 33°41' W 118°07'0 0.0
2017-Sep-21 09:23N 33°41' W 118°07'0 0.0
2017-Sep-21 07:56N 33°41' W 118°07'0 0.0
2017-Sep-21 07:26N 33°41' W 118°07'0 0.0
2017-Sep-21 06:50N 33°41' W 118°07'0 0.0
2017-Sep-21 04:20N 33°41' W 118°07'0 0.0
2017-Sep-21 03:56N 33°41' W 118°07'0 0.0
2017-Sep-21 03:26N 33°41' W 118°07'0 0.1
2017-Sep-21 02:50N 33°41' W 118°07'0 0.0
2017-Sep-21 02:26N 33°41' W 118°07'0 0.0
2017-Sep-21 01:56N 33°41' W 118°07'0 0.0
2017-Sep-21 01:20N 33°41' W 118°07'0 0.0
2017-Sep-21 00:44N 33°41' W 118°07'0 0.0
2017-Sep-21 00:26N 33°41' W 118°07'0 0.0
2017-Sep-20 23:44N 33°41' W 118°07'0 0.0
2017-Sep-20 23:14N 33°41' W 118°07'0 0.0
2017-Sep-20 22:44N 33°41' W 118°07'0 0.1
2017-Sep-20 22:08N 33°41' W 118°07'0 0.0
2017-Sep-20 21:56N 33°41' W 118°07'0 0.1
2017-Sep-20 21:14N 33°41' W 118°07'0 0.2
2017-Sep-20 20:56N 33°41' W 118°07'0 0.0
2017-Sep-20 20:26N 33°41' W 118°07'0 0.0
2017-Sep-20 19:56N 33°41' W 118°07'0 0.0
2017-Sep-20 19:14N 33°41' W 118°07'0 0.1
2017-Sep-20 18:44N 33°41' W 118°07'0 0.0
2017-Sep-20 18:26N 33°41' W 118°07'0 0.0
2017-Sep-20 17:56N 33°41' W 118°07'0 0.0
2017-Sep-20 17:20N 33°41' W 118°07'0 0.0
2017-Sep-20 16:56N 33°41' W 118°07'0 0.0
2017-Sep-20 16:26N 33°41' W 118°07'0 0.1
2017-Sep-20 15:38N 33°41' W 118°07'0 0.0
2017-Sep-20 11:44N 33°41' W 118°07'0 0.2
2017-Sep-20 11:26N 33°41' W 118°07'0 0.0
2017-Sep-20 10:38N 33°41' W 118°07'0 0.0
2017-Sep-20 10:14N 33°41' W 118°07'0 0.2
2017-Sep-20 09:56N 33°41' W 118°07'0 0.0
2017-Sep-20 09:26N 33°41' W 118°07'0 0.1
2017-Sep-20 08:56N 33°41' W 118°07'0 0.0
2017-Sep-20 08:29N 33°41' W 118°07'0 0.0
2017-Sep-20 07:56N 33°41' W 118°07'0 0.0
2017-Sep-20 07:29N 33°41' W 118°07'0 0.0
2017-Sep-20 06:53N 33°41' W 118°07'0 0.0
2017-Sep-20 06:05N 33°41' W 118°07'0 0.0
2017-Sep-20 05:59N 33°41' W 118°07'0 0.1
2017-Sep-20 05:29N 33°41' W 118°07'0 0.0
2017-Sep-20 02:44N 33°41' W 118°07'0 0.1
2017-Sep-20 02:20N 33°41' W 118°07'0 0.0
2017-Sep-20 01:53N 33°41' W 118°07'0 0.0
2017-Sep-20 01:23N 33°41' W 118°07'0 0.0
2017-Sep-20 00:59N 33°41' W 118°07'0 0.0
2017-Sep-20 00:29N 33°41' W 118°07'0 0.0
2017-Sep-19 23:59N 33°41' W 118°07'0 0.1
2017-Sep-19 23:29N 33°41' W 118°07'0 0.1
2017-Sep-19 22:59N 33°41' W 118°07'0 0.0
2017-Sep-19 22:29N 33°41' W 118°07'0 0.0
2017-Sep-19 21:50N 33°41' W 118°07'0 0.0
2017-Sep-19 21:17N 33°41' W 118°07'0 0.0
2017-Sep-19 20:59N 33°41' W 118°07'0 0.0
2017-Sep-19 20:26N 33°41' W 118°07'0 0.1
2017-Sep-19 19:59N 33°41' W 118°07'0 0.0
2017-Sep-19 19:26N 33°41' W 118°07'0 0.1
2017-Sep-19 18:59N 33°41' W 118°07'0 0.0
2017-Sep-19 18:26N 33°41' W 118°07'0 0.0
2017-Sep-19 17:32N 33°41' W 118°07'0 0.0
2017-Sep-19 17:23N 33°41' W 118°07'0 0.0
2017-Sep-19 16:50N 33°41' W 118°07'0 0.0
2017-Sep-19 13:56N 33°41' W 118°07'0 0.0
2017-Sep-19 13:26N 33°41' W 118°07'0 0.0
2017-Sep-19 07:08N 33°41' W 118°07'0 0.1
2017-Sep-19 06:56N 33°41' W 118°07'0 0.1
2017-Sep-19 06:29N 33°41' W 118°07'0 0.0
2017-Sep-19 05:50N 33°41' W 118°07'0 0.1
2017-Sep-19 05:20N 33°41' W 118°07'0 0.0
2017-Sep-19 04:59N 33°41' W 118°07'0 0.0
2017-Sep-19 04:17N 33°41' W 118°07'0 0.0
2017-Sep-19 03:38N 33°41' W 118°07'0 0.0
2017-Sep-19 02:29N 33°41' W 118°07'0 0.0
2017-Sep-19 01:53N 33°41' W 118°07'0 0.0
2017-Sep-19 01:23N 33°41' W 118°07'0 0.1
2017-Sep-19 00:59N 33°41' W 118°07'0 0.0
2017-Sep-19 00:29N 33°41' W 118°07'0 0.0
2017-Sep-18 23:59N 33°41' W 118°07'0 0.1
2017-Sep-18 23:23N 33°41' W 118°07'0 0.0
2017-Sep-18 22:59N 33°41' W 118°07'0 0.0
2017-Sep-18 22:29N 33°41' W 118°07'0 0.1
2017-Sep-18 21:59N 33°41' W 118°07'0 0.0
2017-Sep-18 21:29N 33°41' W 118°07'0 0.0
2017-Sep-18 20:02N 33°41' W 118°07'0 0.0
2017-Sep-18 19:50N 33°41' W 118°07'0 0.0
2017-Sep-18 19:20N 33°41' W 118°07'0 0.0
2017-Sep-18 18:50N 33°41' W 118°07'0 0.0
2017-Sep-18 18:23N 33°41' W 118°07'0 0.0
2017-Sep-18 17:59N 33°41' W 118°07'0 0.1
2017-Sep-18 16:56N 33°41' W 118°07'0 0.0
2017-Sep-18 16:29N 33°41' W 118°07'0 0.1
2017-Sep-18 15:59N 33°41' W 118°07'0 0.0
2017-Sep-18 14:56N 33°41' W 118°07'0 0.0
2017-Sep-18 14:26N 33°41' W 118°07'0 0.1
2017-Sep-18 13:56N 33°41' W 118°07'0 0.0
2017-Sep-18 12:41N 33°41' W 118°07'0 0.0
2017-Sep-18 12:26N 33°41' W 118°07'0 0.0
2017-Sep-18 11:56N 33°41' W 118°07'0 0.0
2017-Sep-18 11:29N 33°41' W 118°07'0 0.0
2017-Sep-18 10:59N 33°41' W 118°07'0 0.0
2017-Sep-18 10:29N 33°41' W 118°07'0 0.2
2017-Sep-18 09:53N 33°41' W 118°07'0 0.1
2017-Sep-18 08:17N 33°41' W 118°07'0 0.1
2017-Sep-18 07:56N 33°41' W 118°07'0 0.0
2017-Sep-18 07:11N 33°41' W 118°07'0 0.0
2017-Sep-18 06:44N 33°41' W 118°07'0 0.0
2017-Sep-18 06:29N 33°41' W 118°07'0 0.1
2017-Sep-18 05:11N 33°41' W 118°07'0 0.0
2017-Sep-18 04:26N 33°41' W 118°07'0 0.0
2017-Sep-18 03:41N 33°41' W 118°07'0 0.0
2017-Sep-18 03:23N 33°41' W 118°07'0 0.0
2017-Sep-18 02:59N 33°41' W 118°07'0 0.0
2017-Sep-18 02:11N 33°41' W 118°07'0 0.0
2017-Sep-18 01:53N 33°41' W 118°07'0 0.0
2017-Sep-18 01:14N 33°41' W 118°07'0 0.0
2017-Sep-18 00:53N 33°41' W 118°07'0 0.0
2017-Sep-18 00:17N 33°41' W 118°07'0 0.0
2017-Sep-17 23:53N 33°41' W 118°07'0 0.0
2017-Sep-17 23:17N 33°41' W 118°07'0 0.0
2017-Sep-17 20:59N 33°41' W 118°07'0 0.0
2017-Sep-17 20:11N 33°41' W 118°07'0 0.0
2017-Sep-17 18:44N 33°41' W 118°07'0 0.0
2017-Sep-17 18:26N 33°41' W 118°07'0 0.1
2017-Sep-17 17:59N 33°41' W 118°07'0 0.0
2017-Sep-17 13:32N 33°41' W 118°07'0 0.0
2017-Sep-17 12:32N 33°41' W 118°07'0 0.0
2017-Sep-17 12:14N 33°41' W 118°07'0 0.0
2017-Sep-17 11:59N 33°41' W 118°07'0 0.0
2017-Sep-17 11:29N 33°41' W 118°07'0 0.1
2017-Sep-17 10:50N 33°41' W 118°07'0 0.1
2017-Sep-17 09:11N 33°41' W 118°07'0 0.1
2017-Sep-17 08:41N 33°41' W 118°07'0 0.0
2017-Sep-17 08:29N 33°41' W 118°07'0 0.0
2017-Sep-17 06:11N 33°41' W 118°07'0 0.0
2017-Sep-17 05:59N 33°41' W 118°07'0 0.0
2017-Sep-17 04:11N 33°41' W 118°07'0 0.0
2017-Sep-17 03:47N 33°41' W 118°07'0 0.0
2017-Sep-17 03:17N 33°41' W 118°07'0 0.0
2017-Sep-17 02:53N 33°41' W 118°07'0 0.0
2017-Sep-17 02:11N 33°41' W 118°07'0 0.0
2017-Sep-16 23:17N 33°41' W 118°07'0 0.0
2017-Sep-16 22:59N 33°41' W 118°07'0 0.2
2017-Sep-16 22:29N 33°41' W 118°07'0 0.0
2017-Sep-16 20:35N 33°41' W 118°07'0 0.0
2017-Sep-16 20:11N 33°41' W 118°07'0 0.0
2017-Sep-16 19:53N 33°41' W 118°07'0 0.0
2017-Sep-16 19:11N 33°41' W 118°07'0 0.0
2017-Sep-16 18:59N 33°41' W 118°07'0 0.0
2017-Sep-16 18:26N 33°41' W 118°07'0 0.1
2017-Sep-16 17:59N 33°41' W 118°07'0 0.0
2017-Sep-16 13:50N 33°41' W 118°07'0 0.0
2017-Sep-16 13:26N 33°41' W 118°07'0 0.0
2017-Sep-16 12:56N 33°41' W 118°07'0 0.0
2017-Sep-16 11:56N 33°41' W 118°07'0 0.1
2017-Sep-16 11:14N 33°41' W 118°07'0 0.1
2017-Sep-16 10:56N 33°41' W 118°07'0 0.1
2017-Sep-16 09:23N 33°41' W 118°07'0 0.0
2017-Sep-16 06:59N 33°41' W 118°07'0 0.1
2017-Sep-16 06:29N 33°41' W 118°07'2 3.2
2017-Sep-16 06:01N 33°40' W 118°08'3 5.2
2017-Sep-16 05:30N 33°37' W 118°09'3 6.4
2017-Sep-16 05:00N 33°34' W 118°09'510.3
2017-Sep-16 04:30N 33°29' W 118°07'611.4
2017-Sep-16 04:00N 33°24' W 118°05'611.9
2017-Sep-16 03:30N 33°18' W 118°02'612.0
2017-Sep-16 03:00N 33°13' W 117°60'611.9
2017-Sep-16 02:30N 33°07' W 117°58'611.4
2017-Sep-16 02:00N 33°01' W 117°58'611.7
2017-Sep-16 01:30N 32°56' W 118°01'612.0
2017-Sep-16 01:00N 32°50' W 118°04'611.9
2017-Sep-16 00:30N 32°45' W 118°06'611.8
2017-Sep-16 00:01N 32°40' W 118°10'612.0
2017-Sep-15 23:30N 32°35' W 118°15'611.9
2017-Sep-15 22:58N 32°30' W 118°19'2611.8
2017-Sep-15 20:45N 32°10' W 118°38'311.3
2017-Sep-15 20:29N 32°07' W 118°40'811.1
2017-Sep-15 19:48N 32°01' W 118°46'311.1
2017-Sep-15 19:30N 31°59' W 118°48'711.2
2017-Sep-15 18:51N 31°53' W 118°54'17 5.6
2017-Sep-15 15:52N 31°42' W 119°09'2 1.1
2017-Sep-15 13:38N 31°44' W 119°11'0 1.1
2017-Sep-15 13:18N 31°44' W 119°11'2 1.4
2017-Sep-15 12:08N 31°45' W 119°13'0 1.6
2017-Sep-15 11:58N 31°45' W 119°13'1 1.5
2017-Sep-15 11:30N 31°45' W 119°14'1 1.3
2017-Sep-15 11:01N 31°46' W 119°14'  
Track history (hours):
 
Tides and Currents Weather Stations Pressure Air Temp Water Temp Dewpoint Dewpoint Depression Visibility Wind Speed Wind Dir Waves Ship Positions

Pgc Ikaros

Last reported at 2017-Sep-25 10:59 UTC. Time now 2017-Sep-25 11:21 UTC.
Position N 37°03' W 123°16'.

Length 228 m; draft 11.2 m.

Type: Tanker. MMSI: 311707000.

Date/timePositionNaut miles runAvg speedWind from/ knotsBaromVisibWave heightAir tempDewpointWater temp
2017-Sep-25 10:59N 37°03' W 123°16'1 1.0
2017-Sep-25 10:26N 37°04' W 123°16'1 0.9
2017-Sep-25 09:53N 37°04' W 123°16'0 1.0
2017-Sep-25 09:29N 37°05' W 123°16'1 1.0
2017-Sep-25 08:59N 37°05' W 123°16'0 1.0
2017-Sep-25 08:30N 37°06' W 123°16'1 1.2
2017-Sep-25 08:00N 37°06' W 123°16'1 1.2
2017-Sep-25 07:30N 37°07' W 123°16'1 1.1
2017-Sep-25 07:00N 37°07' W 123°16'1 1.1
2017-Sep-25 06:30N 37°08' W 123°15'1 1.2
2017-Sep-25 06:00N 37°09' W 123°15'1 1.2
2017-Sep-25 05:30N 37°09' W 123°15'1 1.1
2017-Sep-25 05:00N 37°10' W 123°15'1 1.3
2017-Sep-25 04:30N 37°10' W 123°15'1 1.4
2017-Sep-25 04:00N 37°11' W 123°14'1 1.5
2017-Sep-25 03:30N 37°12' W 123°14'1 1.4
2017-Sep-25 03:00N 37°12' W 123°14'1 1.6
2017-Sep-25 02:30N 37°13' W 123°13'1 1.5
2017-Sep-25 02:00N 37°14' W 123°13'1 1.4
2017-Sep-25 01:30N 37°15' W 123°13'1 1.4
2017-Sep-25 01:00N 37°15' W 123°13'0 0.4
2017-Sep-25 00:30N 37°15' W 123°13'3 6.8
2017-Sep-25 00:00N 37°12' W 123°11'611.6
2017-Sep-24 23:30N 37°07' W 123°09'611.7
2017-Sep-24 23:00N 37°01' W 123°07'611.5
2017-Sep-24 22:30N 36°56' W 123°05'611.6
2017-Sep-24 22:01N 36°50' W 123°03'611.9
2017-Sep-24 21:30N 36°46' W 122°58'612.0
2017-Sep-24 21:00N 36°41' W 122°54'611.8
2017-Sep-24 20:30N 36°36' W 122°49'611.8
2017-Sep-24 20:00N 36°32' W 122°44'611.7
2017-Sep-24 19:30N 36°27' W 122°40'611.2
2017-Sep-24 19:00N 36°23' W 122°35'811.3
2017-Sep-24 18:17N 36°17' W 122°29'311.3
2017-Sep-24 18:00N 36°14' W 122°26'611.2
2017-Sep-24 17:30N 36°10' W 122°22'611.2
2017-Sep-24 17:00N 36°05' W 122°18'611.1
2017-Sep-24 16:30N 36°01' W 122°13'611.3
2017-Sep-24 16:00N 35°57' W 122°09'611.2
2017-Sep-24 15:31N 35°53' W 122°05'611.4
2017-Sep-24 15:00N 35°48' W 121°60'711.6
2017-Sep-24 14:26N 35°43' W 121°55'1511.8
2017-Sep-24 13:10N 35°30' W 121°45'211.8
2017-Sep-24 13:00N 35°29' W 121°43'611.3
2017-Sep-24 12:30N 35°24' W 121°40'611.4
2017-Sep-24 12:01N 35°19' W 121°36'611.7
2017-Sep-24 11:30N 35°15' W 121°32'611.8
2017-Sep-24 11:01N 35°10' W 121°28'611.9
2017-Sep-24 10:30N 35°05' W 121°23'611.4
2017-Sep-24 10:01N 35°00' W 121°20'611.3
2017-Sep-24 09:30N 34°56' W 121°16'611.3
2017-Sep-24 09:00N 34°51' W 121°12'611.2
2017-Sep-24 08:31N 34°46' W 121°08'611.4
2017-Sep-24 08:01N 34°42' W 121°04'611.3
2017-Sep-24 07:31N 34°37' W 121°00'611.4
2017-Sep-24 07:00N 34°32' W 120°57'611.3
2017-Sep-24 06:31N 34°27' W 120°53'611.3
2017-Sep-24 05:59N 34°25' W 120°46'511.4
2017-Sep-24 05:30N 34°24' W 120°40'611.6
2017-Sep-24 04:59N 34°22' W 120°33'611.5
2017-Sep-24 04:30N 34°21' W 120°26'611.9
2017-Sep-24 04:00N 34°19' W 120°19'611.3
2017-Sep-24 03:29N 34°17' W 120°12'511.3
2017-Sep-24 03:00N 34°16' W 120°06'611.7
2017-Sep-24 02:28N 34°14' W 119°59'511.4
2017-Sep-24 02:00N 34°13' W 119°53'811.5
2017-Sep-24 01:20N 34°11' W 119°44'411.6
2017-Sep-24 01:00N 34°10' W 119°39'511.2
2017-Sep-24 00:30N 34°09' W 119°33'611.1
2017-Sep-24 00:00N 34°07' W 119°26'611.2
2017-Sep-23 23:30N 34°05' W 119°20'611.7
2017-Sep-23 23:00N 34°03' W 119°13'611.8
2017-Sep-23 22:30N 34°00' W 119°07'611.9
2017-Sep-23 22:00N 33°57' W 119°01'612.1
2017-Sep-23 21:31N 33°54' W 118°55'611.9
2017-Sep-23 21:00N 33°51' W 118°48'611.8
2017-Sep-23 20:30N 33°49' W 118°42'611.7
2017-Sep-23 19:58N 33°46' W 118°36'24 0.6
2017-Sep-22 01:53N 33°41' W 118°07'0 0.1
2017-Sep-22 01:29N 33°41' W 118°07'0 0.0
2017-Sep-22 00:53N 33°41' W 118°07'0 0.0
2017-Sep-22 00:23N 33°41' W 118°07'0 0.0
2017-Sep-21 23:53N 33°41' W 118°07'0 0.0
2017-Sep-21 23:29N 33°41' W 118°07'0 0.0
2017-Sep-21 22:47N 33°41' W 118°07'0 0.0
2017-Sep-21 22:17N 33°41' W 118°07'0 0.0
2017-Sep-21 21:59N 33°41' W 118°07'0 0.0
2017-Sep-21 21:29N 33°41' W 118°07'0 0.0
2017-Sep-21 20:23N 33°41' W 118°07'0 0.0
2017-Sep-21 19:17N 33°41' W 118°07'0 0.0
2017-Sep-21 18:59N 33°41' W 118°07'0 0.2
2017-Sep-21 18:29N 33°41' W 118°07'0 0.1
2017-Sep-21 17:59N 33°41' W 118°07'0 0.0
2017-Sep-21 17:23N 33°41' W 118°07'0 0.0
2017-Sep-21 16:17N 33°41' W 118°07'0 0.2
2017-Sep-21 15:59N 33°41' W 118°07'0 0.1
2017-Sep-21 15:29N 33°41' W 118°07'0 0.1
2017-Sep-21 14:53N 33°41' W 118°07'0 0.1
2017-Sep-21 14:23N 33°41' W 118°07'0 0.0
2017-Sep-21 11:50N 33°41' W 118°07'0 0.0
2017-Sep-21 11:29N 33°41' W 118°07'0 0.0
2017-Sep-21 10:05N 33°41' W 118°07'0 0.1
2017-Sep-21 09:56N 33°41' W 118°07'0 0.0
2017-Sep-21 09:23N 33°41' W 118°07'0 0.0
2017-Sep-21 07:56N 33°41' W 118°07'0 0.0
2017-Sep-21 07:26N 33°41' W 118°07'0 0.0
2017-Sep-21 06:50N 33°41' W 118°07'0 0.0
2017-Sep-21 04:20N 33°41' W 118°07'0 0.0
2017-Sep-21 03:56N 33°41' W 118°07'0 0.0
2017-Sep-21 03:26N 33°41' W 118°07'0 0.1
2017-Sep-21 02:50N 33°41' W 118°07'0 0.0
2017-Sep-21 02:26N 33°41' W 118°07'0 0.0
2017-Sep-21 01:56N 33°41' W 118°07'0 0.0
2017-Sep-21 01:20N 33°41' W 118°07'0 0.0
2017-Sep-21 00:44N 33°41' W 118°07'0 0.0
2017-Sep-21 00:26N 33°41' W 118°07'0 0.0
2017-Sep-20 23:44N 33°41' W 118°07'0 0.0
2017-Sep-20 23:14N 33°41' W 118°07'0 0.0
2017-Sep-20 22:44N 33°41' W 118°07'0 0.1
2017-Sep-20 22:08N 33°41' W 118°07'0 0.0
2017-Sep-20 21:56N 33°41' W 118°07'0 0.1
2017-Sep-20 21:14N 33°41' W 118°07'0 0.2
2017-Sep-20 20:56N 33°41' W 118°07'0 0.0
2017-Sep-20 20:26N 33°41' W 118°07'0 0.0
2017-Sep-20 19:56N 33°41' W 118°07'0 0.0
2017-Sep-20 19:14N 33°41' W 118°07'0 0.1
2017-Sep-20 18:44N 33°41' W 118°07'0 0.0
2017-Sep-20 18:26N 33°41' W 118°07'0 0.0
2017-Sep-20 17:56N 33°41' W 118°07'0 0.0
2017-Sep-20 17:20N 33°41' W 118°07'0 0.0
2017-Sep-20 16:56N 33°41' W 118°07'0 0.0
2017-Sep-20 16:26N 33°41' W 118°07'0 0.1
2017-Sep-20 15:38N 33°41' W 118°07'0 0.0
2017-Sep-20 11:44N 33°41' W 118°07'0 0.2
2017-Sep-20 11:26N 33°41' W 118°07'0 0.0
2017-Sep-20 10:38N 33°41' W 118°07'0 0.0
2017-Sep-20 10:14N 33°41' W 118°07'0 0.2
2017-Sep-20 09:56N 33°41' W 118°07'0 0.0
2017-Sep-20 09:26N 33°41' W 118°07'0 0.1
2017-Sep-20 08:56N 33°41' W 118°07'0 0.0
2017-Sep-20 08:29N 33°41' W 118°07'0 0.0
2017-Sep-20 07:56N 33°41' W 118°07'0 0.0
2017-Sep-20 07:29N 33°41' W 118°07'0 0.0
2017-Sep-20 06:53N 33°41' W 118°07'0 0.0
2017-Sep-20 06:05N 33°41' W 118°07'0 0.0
2017-Sep-20 05:59N 33°41' W 118°07'0 0.1
2017-Sep-20 05:29N 33°41' W 118°07'0 0.0
2017-Sep-20 02:44N 33°41' W 118°07'0 0.1
2017-Sep-20 02:20N 33°41' W 118°07'0 0.0
2017-Sep-20 01:53N 33°41' W 118°07'0 0.0
2017-Sep-20 01:23N 33°41' W 118°07'0 0.0
2017-Sep-20 00:59N 33°41' W 118°07'0 0.0
2017-Sep-20 00:29N 33°41' W 118°07'0 0.0
2017-Sep-19 23:59N 33°41' W 118°07'0 0.1
2017-Sep-19 23:29N 33°41' W 118°07'0 0.1
2017-Sep-19 22:59N 33°41' W 118°07'0 0.0
2017-Sep-19 22:29N 33°41' W 118°07'0 0.0
2017-Sep-19 21:50N 33°41' W 118°07'0 0.0
2017-Sep-19 21:17N 33°41' W 118°07'0 0.0
2017-Sep-19 20:59N 33°41' W 118°07'0 0.0
2017-Sep-19 20:26N 33°41' W 118°07'0 0.1
2017-Sep-19 19:59N 33°41' W 118°07'0 0.0
2017-Sep-19 19:26N 33°41' W 118°07'0 0.1
2017-Sep-19 18:59N 33°41' W 118°07'0 0.0
2017-Sep-19 18:26N 33°41' W 118°07'0 0.0
2017-Sep-19 17:32N 33°41' W 118°07'0 0.0
2017-Sep-19 17:23N 33°41' W 118°07'0 0.0
2017-Sep-19 16:50N 33°41' W 118°07'0 0.0
2017-Sep-19 13:56N 33°41' W 118°07'0 0.0
2017-Sep-19 13:26N 33°41' W 118°07'0 0.0
2017-Sep-19 07:08N 33°41' W 118°07'0 0.1
2017-Sep-19 06:56N 33°41' W 118°07'0 0.1
2017-Sep-19 06:29N 33°41' W 118°07'0 0.0
2017-Sep-19 05:50N 33°41' W 118°07'0 0.1
2017-Sep-19 05:20N 33°41' W 118°07'0 0.0
2017-Sep-19 04:59N 33°41' W 118°07'0 0.0
2017-Sep-19 04:17N 33°41' W 118°07'0 0.0
2017-Sep-19 03:38N 33°41' W 118°07'0 0.0
2017-Sep-19 02:29N 33°41' W 118°07'0 0.0
2017-Sep-19 01:53N 33°41' W 118°07'0 0.0
2017-Sep-19 01:23N 33°41' W 118°07'0 0.1
2017-Sep-19 00:59N 33°41' W 118°07'0 0.0
2017-Sep-19 00:29N 33°41' W 118°07'0 0.0
2017-Sep-18 23:59N 33°41' W 118°07'0 0.1
2017-Sep-18 23:23N 33°41' W 118°07'0 0.0
2017-Sep-18 22:59N 33°41' W 118°07'0 0.0
2017-Sep-18 22:29N 33°41' W 118°07'0 0.1
2017-Sep-18 21:59N 33°41' W 118°07'0 0.0
2017-Sep-18 21:29N 33°41' W 118°07'0 0.0
2017-Sep-18 20:02N 33°41' W 118°07'0 0.0
2017-Sep-18 19:50N 33°41' W 118°07'0 0.0
2017-Sep-18 19:20N 33°41' W 118°07'0 0.0
2017-Sep-18 18:50N 33°41' W 118°07'0 0.0
2017-Sep-18 18:23N 33°41' W 118°07'0 0.0
2017-Sep-18 17:59N 33°41' W 118°07'0 0.1
2017-Sep-18 16:56N 33°41' W 118°07'0 0.0
2017-Sep-18 16:29N 33°41' W 118°07'0 0.1
2017-Sep-18 15:59N 33°41' W 118°07'0 0.0
2017-Sep-18 14:56N 33°41' W 118°07'0 0.0
2017-Sep-18 14:26N 33°41' W 118°07'0 0.1
2017-Sep-18 13:56N 33°41' W 118°07'0 0.0
2017-Sep-18 12:41N 33°41' W 118°07'0 0.0
2017-Sep-18 12:26N 33°41' W 118°07'0 0.0
2017-Sep-18 11:56N 33°41' W 118°07'0 0.0
2017-Sep-18 11:29N 33°41' W 118°07'0 0.0
2017-Sep-18 10:59N 33°41' W 118°07'0 0.0
2017-Sep-18 10:29N 33°41' W 118°07'0 0.2
2017-Sep-18 09:53N 33°41' W 118°07'0 0.1
2017-Sep-18 08:17N 33°41' W 118°07'0 0.1
2017-Sep-18 07:56N 33°41' W 118°07'0 0.0
2017-Sep-18 07:11N 33°41' W 118°07'0 0.0
2017-Sep-18 06:44N 33°41' W 118°07'0 0.0
2017-Sep-18 06:29N 33°41' W 118°07'0 0.1
2017-Sep-18 05:11N 33°41' W 118°07'0 0.0
2017-Sep-18 04:26N 33°41' W 118°07'0 0.0
2017-Sep-18 03:41N 33°41' W 118°07'0 0.0
2017-Sep-18 03:23N 33°41' W 118°07'0 0.0
2017-Sep-18 02:59N 33°41' W 118°07'0 0.0
2017-Sep-18 02:11N 33°41' W 118°07'0 0.0
2017-Sep-18 01:53N 33°41' W 118°07'0 0.0
2017-Sep-18 01:14N 33°41' W 118°07'0 0.0
2017-Sep-18 00:53N 33°41' W 118°07'0 0.0
2017-Sep-18 00:17N 33°41' W 118°07'0 0.0
2017-Sep-17 23:53N 33°41' W 118°07'0 0.0
2017-Sep-17 23:17N 33°41' W 118°07'0 0.0
2017-Sep-17 20:59N 33°41' W 118°07'0 0.0
2017-Sep-17 20:11N 33°41' W 118°07'0 0.0
2017-Sep-17 18:44N 33°41' W 118°07'0 0.0
2017-Sep-17 18:26N 33°41' W 118°07'0 0.1
2017-Sep-17 17:59N 33°41' W 118°07'0 0.0
2017-Sep-17 13:32N 33°41' W 118°07'0 0.0
2017-Sep-17 12:32N 33°41' W 118°07'0 0.0
2017-Sep-17 12:14N 33°41' W 118°07'0 0.0
2017-Sep-17 11:59N 33°41' W 118°07'0 0.0
2017-Sep-17 11:29N 33°41' W 118°07'0 0.1
2017-Sep-17 10:50N 33°41' W 118°07'0 0.1
2017-Sep-17 09:11N 33°41' W 118°07'0 0.1
2017-Sep-17 08:41N 33°41' W 118°07'0 0.0
2017-Sep-17 08:29N 33°41' W 118°07'0 0.0
2017-Sep-17 06:11N 33°41' W 118°07'0 0.0
2017-Sep-17 05:59N 33°41' W 118°07'0 0.0
2017-Sep-17 04:11N 33°41' W 118°07'0 0.0
2017-Sep-17 03:47N 33°41' W 118°07'0 0.0
2017-Sep-17 03:17N 33°41' W 118°07'0 0.0
2017-Sep-17 02:53N 33°41' W 118°07'0 0.0
2017-Sep-17 02:11N 33°41' W 118°07'0 0.0
2017-Sep-16 23:17N 33°41' W 118°07'0 0.0
2017-Sep-16 22:59N 33°41' W 118°07'0 0.2
2017-Sep-16 22:29N 33°41' W 118°07'0 0.0
2017-Sep-16 20:35N 33°41' W 118°07'0 0.0
2017-Sep-16 20:11N 33°41' W 118°07'0 0.0
2017-Sep-16 19:53N 33°41' W 118°07'0 0.0
2017-Sep-16 19:11N 33°41' W 118°07'0 0.0
2017-Sep-16 18:59N 33°41' W 118°07'0 0.0
2017-Sep-16 18:26N 33°41' W 118°07'0 0.1
2017-Sep-16 17:59N 33°41' W 118°07'0 0.0
2017-Sep-16 13:50N 33°41' W 118°07'0 0.0
2017-Sep-16 13:26N 33°41' W 118°07'0 0.0
2017-Sep-16 12:56N 33°41' W 118°07'0 0.0
2017-Sep-16 11:56N 33°41' W 118°07'0 0.1
2017-Sep-16 11:14N 33°41' W 118°07'0 0.1
2017-Sep-16 10:56N 33°41' W 118°07'0 0.1
2017-Sep-16 09:23N 33°41' W 118°07'0 0.0
2017-Sep-16 06:59N 33°41' W 118°07'0 0.1
2017-Sep-16 06:29N 33°41' W 118°07'2 3.2
2017-Sep-16 06:01N 33°40' W 118°08'3 5.2
2017-Sep-16 05:30N 33°37' W 118°09'3 6.4
2017-Sep-16 05:00N 33°34' W 118°09'510.3
2017-Sep-16 04:30N 33°29' W 118°07'611.4
2017-Sep-16 04:00N 33°24' W 118°05'611.9
2017-Sep-16 03:30N 33°18' W 118°02'612.0
2017-Sep-16 03:00N 33°13' W 117°60'611.9
2017-Sep-16 02:30N 33°07' W 117°58'611.4
2017-Sep-16 02:00N 33°01' W 117°58'611.7
2017-Sep-16 01:30N 32°56' W 118°01'612.0
2017-Sep-16 01:00N 32°50' W 118°04'611.9
2017-Sep-16 00:30N 32°45' W 118°06'611.8
2017-Sep-16 00:01N 32°40' W 118°10'612.0
2017-Sep-15 23:30N 32°35' W 118°15'611.9
2017-Sep-15 22:58N 32°30' W 118°19'2611.8
2017-Sep-15 20:45N 32°10' W 118°38'311.3
2017-Sep-15 20:29N 32°07' W 118°40'811.1
2017-Sep-15 19:48N 32°01' W 118°46'311.1
2017-Sep-15 19:30N 31°59' W 118°48'711.2
2017-Sep-15 18:51N 31°53' W 118°54'17 5.6
2017-Sep-15 15:52N 31°42' W 119°09'2 1.1
2017-Sep-15 13:38N 31°44' W 119°11'0 1.1
2017-Sep-15 13:18N 31°44' W 119°11'2 1.4
2017-Sep-15 12:08N 31°45' W 119°13'0 1.6
2017-Sep-15 11:58N 31°45' W 119°13'1 1.5
2017-Sep-15 11:30N 31°45' W 119°14'1 1.3
2017-Sep-15 11:01N 31°46' W 119°14'  

Dump ship's entire track history